Current | Forecast
Updated: 11:20 PM +03 on August 22, 2017
Observed at Izmir, Greece
Temperature 24°C
Humidity 61%
Dew Point 16°C
Wind North at 15 km/h
Pressure 1012 hPa (Rising)
Conditions Clear
Visibility -
UV N/A
Clouds
Yesterday's Maximum 32°C
Yesterday's Minimum 20°C approx.
Yesterday's Cooling Degree Days 14 approx.
Sunrise6:35 AM EEST
Sunset7:57 PM EEST
Moon Rise7:03 AM EEST
Moon Set8:31 PM EEST
Moon PhaseMoon Phase
New Moon
Raw METARMETAR LTBJ 222020Z 35008KT CAVOK 24/16 Q1012 NOSIG RMK RWY16 36003KT 320V020


Monday
. High: 71° F.
Tuesday
. High: 77° F.
Wednesday
. High: 77° F.
Thursday
. High: 78° F.
Friday
. High: 78° F.
Saturday
. High: 73° F.
Sunday
. High: 73° F.
Monday
. High: 69° F.

Units: English | Metric

Find the Weather for any City, State or Zipcode, or Country:

U.S. State List | Severe Weather | Tropical Storms | Ski Conditions
United States | Canada | Central America | South America | Asia | Europe | Australia | Africa | Islands

Weather Underground

© Copyright 2017
The Weather Company, LLC